Time;durP1;ratioP1;P1;durP2;ratioP2;P2;SDS_P1;SDS_P2;PMS_P1;PMS_P2;Temp;Humidity;BMP_temperature;BMP_pressure;BME280_temperature;BME280_humidity;BME280_pressure;Samples;Min_cycle;Max_cycle;Signal;HPM_P1;HPM_P2
2022/04/05 07:23:14;;;;;;;17.23;3.17;;;;;;;10.11;60.46;99669.97;4213187;23;120679;-90
2022/04/05 07:29:28;;;;;;;;;;;;;;;;;;;;;
2022/04/05 07:32:24;;;;;;;12.35;2.30;;;;;;;10.14;58.61;99611.50;4857257;28;122147;-91
2022/04/05 07:35:11;;;;;;;11.52;2.60;;;;;;;10.20;58.16;99615.09;4835257;28;118637;-89
2022/04/05 07:37:57;;;;;;;;;;;;;;;;;;;;;
2022/04/05 07:44:01;;;;;;;10.73;1.90;;;;;;;10.41;56.50;99619.47;4845517;28;119469;-92
2022/04/05 07:46:42;;;;;;;12.23;2.40;;;;;;;10.37;57.14;99598.94;4837680;28;122332;-89
2022/04/05 07:49:57;;;;;;;;;;;;;;;;;;;;;
2022/04/05 07:52:39;;;;;;;7.45;1.73;;;;;;;10.31;55.59;99607.06;4855580;28;120524;-90
2022/04/05 07:56:04;;;;;;;;;;;;;;;;;;;;;
2022/04/05 08:00:01;;;;;;;;;;;;;;;;;;;;;
2022/04/05 08:02:53;;;;;;;9.38;1.80;;;;;;;10.84;54.85;99674.69;4861222;28;121705;-89
2022/04/05 08:05:51;;;;;;;;;;;;;;;;;;;;;
2022/04/05 08:08:23;;;;;;;12.45;2.13;;;;;;;10.72;56.37;99629.91;4832810;28;119774;-90
2022/04/05 08:11:23;;;;;;;12.05;1.73;;;;;;;10.85;55.22;99650.75;4845666;28;121373;-91
2022/04/05 08:14:07;;;;;;;8.65;1.77;;;;;;;10.72;52.75;99634.63;4842618;28;122522;-90
2022/04/05 08:17:01;;;;;;;7.45;1.90;;;;;;;10.85;52.94;99640.53;4821690;28;119999;-91
2022/04/05 08:20:11;;;;;;;;;;;;;;;;;;;;;
2022/04/05 08:23:06;;;;;;;7.68;1.40;;;;;;;11.18;52.60;99655.97;4842476;28;121441;-90
2022/04/05 08:26:15;;;;;;;7.68;1.60;;;;;;;11.47;51.93;99683.31;4847367;28;119825;-90
2022/04/05 08:29:14;;;;;;;;;;;;;;;;;;;;;
2022/04/05 08:32:37;;;;;;;;;;;;;;;;;;;;;
2022/04/05 08:35:43;;;;;;;;;;;;;;;;;;;;;
2022/04/05 08:38:42;;;;;;;;;;;;;;;;;;;;;
2022/04/05 08:41:52;;;;;;;;;;;;;;;;;;;;;
2022/04/05 08:44:57;;;;;;;8.15;1.70;;;;;;;11.57;50.26;99690.16;4859254;28;121115;-90
2022/04/05 08:48:08;;;;;;;;;;;;;;;;;;;;;
2022/04/05 08:50:47;;;;;;;7.20;1.60;;;;;;;11.25;50.27;99628.13;4861215;28;119970;-90
2022/04/05 08:53:39;;;;;;;;;;;;;;;;;;;;;
2022/04/05 08:57:06;;;;;;;9.68;1.77;;;;;;;11.81;47.40;99675.47;4846246;28;119829;-90
2022/04/05 08:59:36;;;;;;;7.82;1.52;;;;;;;11.82;49.24;99657.75;4843038;28;121923;-90
2022/04/05 09:02:39;;;;;;;;;;;;;;;;;;;;;
2022/04/05 09:05:58;;;;;;;;;;;;;;;;;;;;;
2022/04/05 09:09:00;;;;;;;;;;;;;;;;;;;;;
2022/04/05 09:11:59;;;;;;;;;;;;;;;;;;;;;
2022/04/05 09:15:07;;;;;;;;;;;;;;;;;;;;;
2022/04/05 09:21:21;;;;;;;;;;;;;;;;;;;;;
2022/04/05 09:24:20;;;;;;;6.55;1.67;;;;;;;12.17;49.85;99638.38;4860933;28;121774;-93
2022/04/05 09:28:20;;;;;;;5.30;1.75;;;;;;;12.40;49.20;99666.84;4840251;28;121557;-93
2022/04/05 09:31:22;;;;;;;;;;;;;;;;;;;;;
2022/04/05 09:34:16;;;;;;;7.55;1.70;;;;;;;12.49;47.29;99675.66;4850726;28;122223;-90
2022/04/05 09:37:23;;;;;;;7.50;1.50;;;;;;;12.29;47.44;99643.50;4837407;28;123050;-92
2022/04/05 09:40:32;;;;;;;7.40;1.77;;;;;;;12.24;47.12;99624.94;4843220;28;119955;-93
2022/04/05 09:44:25;;;;;;;;;;;;;;;;;;;;;
2022/04/05 09:47:24;;;;;;;5.30;1.40;;;;;;;12.51;49.78;99658.66;4856185;28;121358;-92
2022/04/05 09:50:28;;;;;;;;;;;;;;;;;;;;;
2022/04/05 09:53:14;;;;;;;9.63;1.90;;;;;;;12.49;48.74;99636.41;4844079;28;121401;-90
2022/04/05 09:56:11;;;;;;;6.95;2.00;;;;;;;12.60;48.09;99647.50;4843380;28;119581;-92
2022/04/05 09:59:14;;;;;;;;;;;;;;;;;;;;;
2022/04/05 10:02:30;;;;;;;;;;;;;;;;;;;;;
2022/04/05 10:05:53;;;;;;;;;;;;;;;;;;;;;
2022/04/05 10:08:48;;;;;;;3.88;1.30;;;;;;;13.17;49.27;99671.38;4852470;28;120372;-92
2022/04/05 10:11:14;;;;;;;8.40;1.50;;;;;;;13.41;49.00;99684.81;4842927;28;122899;-92
2022/04/05 10:13:43;;;;;;;7.07;1.90;;;;;;;13.38;46.47;99670.03;4833873;28;119404;-92
2022/04/05 10:16:11;;;;;;;4.95;1.63;;;;;;;13.16;44.94;99629.31;4819816;28;122901;-94
2022/04/05 10:18:37;;;;;;;6.85;1.80;;;;;;;13.10;45.37;99628.56;4845200;28;119645;-92
2022/04/05 10:21:04;;;;;;;5.75;1.98;;;;;;;13.10;45.77;99627.81;4827576;28;120635;-91
2022/04/05 10:23:31;;;;;;;4.40;1.70;;;;;;;13.27;45.06;99675.50;4818390;28;123024;-91
2022/04/05 10:25:58;;;;;;;7.25;1.63;;;;;;;13.08;44.45;99664.09;4828831;28;120125;-91
2022/04/05 10:28:29;;;;;;;6.72;1.65;;;;;;;13.21;44.62;99697.47;4828601;28;122050;-91
2022/04/05 10:31:10;;;;;;;5.25;1.25;;;;;;;13.12;44.96;99697.63;4828904;28;121871;-90
2022/04/05 10:33:36;;;;;;;5.00;1.40;;;;;;;13.11;44.73;99706.41;4827840;28;121688;-92
2022/04/05 10:36:02;;;;;;;6.10;1.42;;;;;;;12.99;44.81;99702.03;4842607;28;123214;-91
2022/04/05 10:38:30;;;;;;;6.53;1.30;;;;;;;12.97;44.43;99701.78;4829739;28;119454;-89
2022/04/05 10:41:18;;;;;;;5.10;1.48;;;;;;;12.95;45.32;99707.03;4839433;28;121204;-92
2022/04/05 10:43:47;;;;;;;7.28;1.45;;;;;;;12.83;45.03;99692.44;4827533;28;123110;-91
2022/04/05 10:46:13;;;;;;;6.85;1.70;;;;;;;12.84;45.43;99693.94;4844221;28;119544;-91
2022/04/05 10:48:55;;;;;;;5.80;1.42;;;;;;;12.87;45.12;99701.22;4830138;28;122027;-91
2022/04/05 10:51:33;;;;;;;5.43;1.58;;;;;;;12.63;44.51;99674.03;4828765;28;123675;-91
2022/04/05 10:54:19;;;;;;;8.40;1.58;;;;;;;12.71;46.24;99685.34;4828787;28;121253;-92
2022/04/05 10:57:26;;;;;;;5.50;1.55;;;;;;;12.83;45.28;99701.47;4846591;28;122812;-91
2022/04/05 11:00:06;;;;;;;8.80;1.70;;;;;;;12.84;46.02;99700.22;4831743;28;123381;-91
2022/04/05 11:02:52;;;;;;;7.00;1.42;;;;;;;12.87;45.88;99704.72;4842272;28;122116;-91
2022/04/05 11:05:23;;;;;;;6.72;1.65;;;;;;;12.96;47.72;99712.03;4857643;28;120816;-90
2022/04/05 11:07:51;;;;;;;8.05;1.48;;;;;;;13.05;46.88;99709.13;4828438;28;119662;-91
2022/04/05 11:10:27;;;;;;;4.72;1.25;;;;;;;12.88;46.75;99675.97;4826602;28;122022;-90
2022/04/05 11:13:09;;;;;;;8.07;1.45;;;;;;;13.03;46.84;99686.09;4820208;28;123299;-90
2022/04/05 11:15:47;;;;;;;5.60;1.20;;;;;;;13.18;48.07;99709.47;4828818;28;120150;-90
2022/04/05 11:18:21;;;;;;;6.57;1.70;;;;;;;12.99;46.63;99661.50;4829717;28;122462;-92
2022/04/05 11:20:51;;;;;;;6.47;1.30;;;;;;;13.33;47.25;99701.06;4843195;28;119476;-90
2022/04/05 11:23:18;;;;;;;5.25;1.23;;;;;;;13.40;45.89;99692.31;4847822;28;119451;-92
2022/04/05 11:25:44;;;;;;;7.05;1.50;;;;;;;13.19;46.32;99666.16;4842285;28;123631;-92
2022/04/05 11:28:12;;;;;;;7.00;1.40;;;;;;;13.45;44.83;99690.81;4827892;28;120185;-92
2022/04/05 11:30:51;;;;;;;8.63;1.40;;;;;;;13.38;45.24;99699.56;4862240;28;120018;-92
2022/04/05 11:33:35;;;;;;;5.25;1.90;;;;;;;13.34;44.26;99696.28;4848784;28;123394;-93
2022/04/05 11:39:46;;;;;;;7.80;1.58;;;;;;;13.09;44.74;99689.63;5163510;23;120657;31
2022/04/05 11:42:43;;;;;;;7.30;1.70;;;;;;;12.64;44.83;99659.03;4812876;29;122479;-94
2022/04/05 11:45:33;;;;;;;8.02;1.85;;;;;;;12.37;45.22;99634.81;4801040;29;119553;-93
2022/04/05 11:48:02;;;;;;;8.13;1.75;;;;;;;12.72;45.77;99704.09;4809567;29;122164;-94
2022/04/05 11:50:37;;;;;;;7.15;1.40;;;;;;;12.27;46.84;99642.47;4826347;29;119708;-93
2022/04/05 11:53:23;;;;;;;6.65;1.70;;;;;;;12.79;48.49;99698.19;4795045;29;120875;-93
2022/04/05 11:56:32;;;;;;;6.10;1.27;;;;;;;12.53;50.61;99637.69;4817787;29;119422;-92
2022/04/05 11:59:18;;;;;;;;;;;;;;;13.07;49.57;99698.38;4808217;29;119203;-93
2022/04/05 12:17:47;;;;;;;6.65;1.77;;;;;;;13.39;49.08;99660.50;4876500;28;118572;-92
2022/04/05 12:20:36;;;;;;;7.32;1.70;;;;;;;13.35;48.03;99646.22;4845988;28;122646;-84
2022/04/05 12:23:02;;;;;;;7.60;1.58;;;;;;;13.69;46.18;99684.91;4826624;28;119682;-83
2022/04/05 12:25:28;;;;;;;7.85;1.33;;;;;;;13.59;45.32;99694.66;4808039;28;124251;-84
2022/04/05 12:27:56;;;;;;;6.45;1.70;;;;;;;13.39;45.69;99696.31;4802819;28;122867;-85
2022/04/05 12:30:29;;;;;;;7.05;1.88;;;;;;;13.19;45.11;99701.97;4836754;28;121173;-85
2022/04/05 12:33:01;;;;;;;7.80;1.90;;;;;;;13.04;47.23;99702.09;4822793;28;122009;-86
2022/04/05 12:35:27;;;;;;;6.80;1.60;;;;;;;13.03;46.55;99705.34;4840976;28;119891;-85
2022/04/05 12:37:52;;;;;;;6.10;1.30;;;;;;;12.98;46.13;99692.28;4838287;28;119676;-84
2022/04/05 12:40:25;;;;;;;9.90;1.33;;;;;;;12.94;46.19;99691.75;4803104;28;123560;-86
2022/04/05 12:42:51;;;;;;;9.07;1.75;;;;;;;12.87;47.33;99677.22;4832434;28;119620;-85
2022/04/05 12:45:25;;;;;;;8.98;1.60;;;;;;;13.01;47.58;99688.53;4849139;28;120269;-86
2022/04/05 12:47:51;;;;;;;9.48;1.85;;;;;;;13.02;46.93;99681.81;4832543;28;122898;-85
2022/04/05 12:50:17;;;;;;;5.95;1.52;;;;;;;13.14;45.80;99688.88;4802774;28;119771;-85
2022/04/05 12:52:46;;;;;;;7.07;1.58;;;;;;;13.18;46.17;99689.44;4838492;28;119842;-85
2022/04/05 12:55:18;;;;;;;6.38;1.40;;;;;;;13.14;45.40;99677.88;4818984;29;122680;-85
2022/04/05 12:57:51;;;;;;;8.52;1.70;;;;;;;13.13;45.80;99676.38;4823732;28;119927;-86
2022/04/05 13:00:23;;;;;;;6.57;1.30;;;;;;;13.18;46.04;99686.69;4818110;28;122910;-85
2022/04/05 13:03:09;;;;;;;6.55;1.30;;;;;;;13.16;46.89;99687.16;4819090;28;119572;-85
2022/04/05 13:08:31;;;;;;;6.13;1.63;;;;;;;13.24;45.58;99673.69;4853558;28;120893;-83
2022/04/05 13:11:22;;;;;;;7.47;1.75;;;;;;;13.22;45.50;99670.69;4833872;28;119847;-84
2022/04/05 13:13:48;;;;;;;7.78;1.85;;;;;;;13.13;45.28;99671.63;4803931;28;121597;-86
2022/04/05 13:16:15;;;;;;;6.20;1.25;;;;;;;13.10;44.37;99671.84;4826444;28;123727;-85
2022/04/05 13:18:46;;;;;;;6.10;1.23;;;;;;;13.05;44.35;99672.56;4832946;28;119520;-84
2022/04/05 13:21:21;;;;;;;4.65;1.20;;;;;;;12.88;45.28;99656.69;4859500;28;121912;-85
2022/04/05 13:24:04;;;;;;;9.20;1.55;;;;;;;12.90;44.99;99669.97;4841127;28;119731;-85
2022/04/05 13:26:30;;;;;;;6.70;1.40;;;;;;;12.76;45.58;99652.34;4840926;28;122762;-86
2022/04/05 13:29:04;;;;;;;3.90;1.30;;;;;;;12.71;45.40;99657.81;4842426;28;122907;-84
2022/04/05 13:31:39;;;;;;;7.32;1.70;;;;;;;12.55;46.18;99662.72;4846218;28;120018;-85
2022/04/05 13:34:05;;;;;;;7.28;1.63;;;;;;;12.54;46.28;99674.22;4832254;28;121879;-85
2022/04/05 13:36:31;;;;;;;6.25;1.40;;;;;;;12.51;46.48;99672.41;4846675;28;120386;-85
2022/04/05 13:38:56;;;;;;;6.85;1.38;;;;;;;12.43;46.33;99660.34;4844159;28;119965;-85
2022/04/05 13:41:22;;;;;;;8.48;1.50;;;;;;;12.50;46.58;99670.91;4847165;28;121894;-87
2022/04/05 13:43:48;;;;;;;6.63;1.77;;;;;;;12.56;46.21;99669.75;4845486;28;123396;-85
2022/04/05 13:46:13;;;;;;;6.90;1.48;;;;;;;12.54;46.06;99661.22;4841755;28;122525;-84
2022/04/05 13:48:39;;;;;;;4.25;1.40;;;;;;;12.55;46.29;99650.97;4859045;28;120311;-85
2022/04/05 13:51:04;;;;;;;8.77;1.70;;;;;;;12.68;45.79;99661.56;4843792;28;120354;-84
2022/04/05 13:53:30;;;;;;;6.47;1.70;;;;;;;12.64;46.33;99652.78;4844718;28;122487;-84
2022/04/05 13:55:56;;;;;;;3.90;1.40;;;;;;;12.68;49.07;99650.56;4842295;28;122611;-85
2022/04/05 13:58:22;;;;;;;7.00;1.70;;;;;;;12.74;48.78;99646.59;4857349;28;121188;-86
2022/04/05 14:00:48;;;;;;;6.95;1.80;;;;;;;12.82;49.35;99652.41;4828449;28;121595;-84
2022/04/05 14:03:13;;;;;;;6.30;1.40;;;;;;;12.85;46.89;99641.16;4853037;28;119796;-86
2022/04/05 14:05:39;;;;;;;4.65;1.40;;;;;;;12.98;48.81;99648.25;4866202;28;119375;-85
2022/04/05 14:08:06;;;;;;;5.50;1.48;;;;;;;13.12;48.28;99644.59;4861356;28;120264;-84
2022/04/05 14:10:32;;;;;;;9.15;1.65;;;;;;;13.21;48.38;99638.88;4845097;28;120121;-86
2022/04/05 14:12:58;;;;;;;4.47;1.42;;;;;;;13.28;50.44;99624.66;4825214;28;122178;-85
2022/04/05 14:15:23;;;;;;;6.28;1.50;;;;;;;13.52;48.70;99636.03;4842875;28;122510;-86
2022/04/05 14:17:49;;;;;;;6.65;1.52;;;;;;;13.47;48.65;99620.22;4846903;28;119908;-85
2022/04/05 14:20:14;;;;;;;6.20;1.30;;;;;;;13.58;48.38;99640.81;4860055;28;120595;-85
2022/04/05 14:22:40;;;;;;;6.70;1.45;;;;;;;13.55;47.08;99631.53;4859098;28;123389;-84
2022/04/05 14:25:06;;;;;;;5.07;1.23;;;;;;;13.42;47.10;99631.22;4862628;28;120989;-84
2022/04/05 14:27:32;;;;;;;8.68;1.45;;;;;;;13.46;46.26;99646.25;4841183;28;122862;-85
2022/04/05 14:29:57;;;;;;;5.13;1.33;;;;;;;13.30;47.41;99635.94;4857046;28;119915;-84
2022/04/05 14:32:23;;;;;;;4.30;1.42;;;;;;;13.20;47.63;99627.13;4842498;28;121511;-85
2022/04/05 14:34:48;;;;;;;5.35;1.40;;;;;;;13.06;46.08;99625.28;4875396;28;120375;-84
2022/04/05 14:37:14;;;;;;;7.78;1.60;;;;;;;13.06;45.88;99630.03;4858747;28;119960;-84
2022/04/05 14:39:40;;;;;;;9.00;1.60;;;;;;;13.02;45.83;99635.03;4840260;28;119994;-86
2022/04/05 14:42:06;;;;;;;7.43;1.48;;;;;;;12.85;46.19;99632.91;4871626;28;120152;-84
2022/04/05 14:44:32;;;;;;;7.95;1.88;;;;;;;12.75;45.32;99637.09;4839644;28;120685;-84
2022/04/05 14:47:00;;;;;;;7.85;1.52;;;;;;;12.66;44.32;99637.28;4859378;28;119725;-85
2022/04/05 14:49:27;;;;;;;3.72;1.20;;;;;;;12.50;43.70;99630.41;4838107;28;119611;-85
2022/04/05 14:51:53;;;;;;;6.45;1.67;;;;;;;12.34;43.34;99630.28;4841659;28;121049;-84
2022/04/05 14:54:18;;;;;;;3.22;1.10;;;;;;;12.25;44.39;99634.72;4871174;28;119787;-84
2022/04/05 14:56:44;;;;;;;5.15;1.23;;;;;;;12.26;43.58;99640.97;4824060;28;119772;-84
2022/04/05 14:59:10;;;;;;;5.55;1.55;;;;;;;12.23;44.34;99628.19;4838505;28;121847;-85
2022/04/05 15:01:36;;;;;;;5.07;1.30;;;;;;;12.23;44.71;99631.69;4870690;28;120185;-85
2022/04/05 15:04:02;;;;;;;5.22;1.45;;;;;;;12.20;44.01;99631.91;4854665;28;119687;-84
2022/04/05 15:06:29;;;;;;;7.07;1.45;;;;;;;12.18;43.46;99631.66;4839648;28;122382;-85
2022/04/05 15:08:58;;;;;;;6.75;1.40;;;;;;;12.15;44.90;99614.13;4843258;28;122784;-85
2022/04/05 15:11:24;;;;;;;4.47;1.30;;;;;;;12.28;45.69;99619.97;4839405;28;121684;-84
2022/04/05 15:13:50;;;;;;;6.10;1.80;;;;;;;12.37;46.24;99619.06;4820335;28;122781;-85
2022/04/05 15:16:15;;;;;;;10.02;1.58;;;;;;;12.34;47.75;99620.06;4835947;28;119607;-81
2022/04/05 15:18:41;;;;;;;5.97;1.85;;;;;;;12.46;48.71;99632.63;4854296;28;119444;-79
2022/04/05 15:21:07;;;;;;;5.53;1.98;;;;;;;12.51;46.33;99645.66;4868738;28;119750;-79
2022/04/05 15:23:33;;;;;;;5.47;1.45;;;;;;;12.46;45.59;99631.88;4837429;28;119812;-81
2022/04/05 15:26:00;;;;;;;8.90;1.90;;;;;;;12.56;43.92;99636.72;4837485;28;121617;-80
2022/04/05 15:28:28;;;;;;;9.73;1.88;;;;;;;12.40;44.21;99618.09;4852478;28;122795;-81
2022/04/05 15:30:54;;;;;;;9.43;2.30;;;;;;;12.48;43.65;99632.16;4855910;28;119943;-80
2022/04/05 15:33:21;;;;;;;6.38;1.50;;;;;;;12.44;44.63;99637.13;4836702;28;122583;-80
2022/04/05 15:35:47;;;;;;;5.50;1.77;;;;;;;12.37;44.86;99619.06;4853134;28;119866;-83
2022/04/05 15:38:13;;;;;;;8.00;1.80;;;;;;;12.40;44.55;99637.34;4836557;28;121646;-80
2022/04/05 15:40:39;;;;;;;7.00;1.58;;;;;;;12.34;47.96;99627.53;4851697;28;119950;-83
2022/04/05 15:43:06;;;;;;;5.55;1.52;;;;;;;12.42;46.21;99636.84;4852458;28;120506;-82
2022/04/05 15:45:31;;;;;;;11.00;1.70;;;;;;;12.34;45.04;99642.03;4838547;28;122770;-82
2022/04/05 15:47:57;;;;;;;8.25;1.50;;;;;;;12.24;44.24;99644.19;4837965;28;123268;-81
2022/04/05 15:50:23;;;;;;;7.10;1.90;;;;;;;12.17;44.34;99644.63;4837542;28;121650;-82
2022/04/05 15:52:49;;;;;;;5.65;1.25;;;;;;;12.10;44.54;99627.84;4874102;28;119473;-81
2022/04/05 15:55:16;;;;;;;9.65;1.80;;;;;;;12.11;44.97;99632.84;4853734;28;119559;-81
2022/04/05 15:57:42;;;;;;;10.18;1.75;;;;;;;12.06;45.68;99630.03;4853805;28;120413;-81
2022/04/05 16:00:15;;;;;;;4.38;1.52;;;;;;;12.08;45.44;99630.31;4870480;28;120974;-80
2022/04/05 16:02:42;;;;;;;7.40;1.77;;;;;;;11.99;45.49;99618.22;4852156;28;119937;-82
2022/04/05 16:05:09;;;;;;;8.50;1.77;;;;;;;12.01;44.90;99626.00;4822586;28;120335;-81
2022/04/05 16:07:36;;;;;;;7.22;1.42;;;;;;;11.96;46.76;99623.94;4851845;28;120101;-81
2022/04/05 16:10:06;;;;;;;7.20;1.90;;;;;;;11.96;46.06;99623.94;4822177;28;119598;-81
2022/04/05 16:12:33;;;;;;;6.93;1.60;;;;;;;11.95;46.58;99617.69;4840357;28;119793;-83
2022/04/05 16:14:58;;;;;;;7.13;1.80;;;;;;;11.90;46.70;99617.66;4838105;28;119820;-83
2022/04/05 16:17:24;;;;;;;6.47;1.80;;;;;;;11.92;46.22;99623.41;4853094;28;119676;-83
2022/04/05 16:19:49;;;;;;;8.90;1.70;;;;;;;11.87;46.65;99624.13;4853046;28;121447;-83
2022/04/05 16:22:19;;;;;;;6.72;1.88;;;;;;;11.80;46.50;99625.28;4853754;28;119940;-83
2022/04/05 16:24:45;;;;;;;8.55;1.83;;;;;;;11.77;46.15;99630.97;4870363;28;119456;-82
2022/04/05 16:27:13;;;;;;;7.85;1.90;;;;;;;11.69;46.41;99616.91;4837110;28;122637;-81
2022/04/05 16:29:39;;;;;;;12.30;2.03;;;;;;;11.71;46.74;99619.16;4853244;28;119729;-83
2022/04/05 16:32:05;;;;;;;7.95;2.30;;;;;;;11.73;46.35;99633.16;4821777;28;122763;-81
2022/04/05 16:34:32;;;;;;;9.23;2.00;;;;;;;11.70;46.25;99623.91;4825689;28;123277;-82
2022/04/05 16:37:00;;;;;;;11.13;2.25;;;;;;;11.69;46.50;99623.16;4837063;28;121506;-82
2022/04/05 16:39:26;;;;;;;8.38;2.20;;;;;;;11.71;46.54;99625.41;4820441;28;123802;-81
2022/04/05 16:41:52;;;;;;;8.80;2.10;;;;;;;11.63;46.04;99616.84;4837963;28;119597;-82
2022/04/05 16:44:19;;;;;;;5.93;1.70;;;;;;;11.68;46.24;99624.38;4821953;28;122127;-81
2022/04/05 16:46:45;;;;;;;12.77;2.92;;;;;;;11.60;46.15;99617.81;4852783;28;119882;-83
2022/04/05 16:49:13;;;;;;;7.43;1.90;;;;;;;11.59;45.74;99610.81;4870076;28;120463;-82
2022/04/05 16:51:40;;;;;;;9.10;2.10;;;;;;;11.54;46.02;99605.25;4837106;28;122229;-84
2022/04/05 16:54:15;;;;;;;11.35;2.40;;;;;;;11.56;46.21;99620.00;4852406;28;123176;-81
2022/04/05 16:56:42;;;;;;;11.85;2.78;;;;;;;11.48;46.59;99609.94;4825592;28;121009;-81
2022/04/05 16:59:07;;;;;;;8.85;1.90;;;;;;;11.48;46.01;99615.41;4837247;28;120475;-82
2022/04/05 17:01:33;;;;;;;7.55;2.17;;;;;;;11.51;46.43;99623.44;4836056;28;119585;-81
2022/04/05 17:03:58;;;;;;;11.25;2.50;;;;;;;11.42;46.71;99603.63;4853194;28;120190;-83
2022/04/05 17:06:26;;;;;;;7.72;2.22;;;;;;;11.38;46.69;99598.34;4835017;28;122663;-81
2022/04/05 17:08:52;;;;;;;8.57;2.40;;;;;;;11.33;46.82;99594.28;4835026;28;120045;-80
2022/04/05 17:11:18;;;;;;;8.48;2.50;;;;;;;11.33;46.69;99601.75;4847249;28;119507;-81
2022/04/05 17:13:44;;;;;;;8.15;2.15;;;;;;;11.31;47.16;99596.00;4847944;28;120256;-82
2022/04/05 17:16:10;;;;;;;8.90;2.42;;;;;;;11.32;46.59;99606.50;4849222;28;121316;-81
2022/04/05 17:18:36;;;;;;;11.40;2.70;;;;;;;11.29;46.77;99606.69;4822014;28;122143;-81
2022/04/05 17:21:03;;;;;;;9.60;2.03;;;;;;;11.20;46.89;99593.88;4862485;28;119715;-81
2022/04/05 17:23:29;;;;;;;10.07;2.00;;;;;;;11.21;47.41;99595.38;4818606;28;121711;-82
2022/04/05 17:25:55;;;;;;;11.15;1.77;;;;;;;11.21;47.50;99594.63;4819569;28;123979;-81
2022/04/05 17:28:21;;;;;;;6.30;2.10;;;;;;;11.15;47.78;99591.81;4833368;28;120150;-81
2022/04/05 17:30:50;;;;;;;9.18;2.40;;;;;;;11.19;48.02;99594.38;4837671;28;121602;-81
2022/04/05 17:33:16;;;;;;;9.85;2.20;;;;;;;11.18;48.81;99601.09;4821737;28;123511;-81
2022/04/05 17:35:44;;;;;;;9.98;2.80;;;;;;;11.17;48.98;99594.09;4836239;28;121453;-81
2022/04/05 17:38:09;;;;;;;10.05;3.90;;;;;;;11.15;48.75;99585.59;4840373;28;122975;-82
2022/04/05 17:40:35;;;;;;;9.48;2.35;;;;;;;11.15;48.88;99596.56;4836390;28;120968;-81
2022/04/05 17:43:01;;;;;;;9.80;3.05;;;;;;;11.06;49.26;99583.72;4838939;28;122325;-81
2022/04/05 17:45:27;;;;;;;11.35;2.60;;;;;;;11.07;49.38;99582.47;4833863;28;120107;-81
2022/04/05 17:47:56;;;;;;;11.55;3.80;;;;;;;11.10;49.28;99586.25;4836793;28;119391;-80
2022/04/05 17:50:24;;;;;;;11.45;3.00;;;;;;;11.05;49.97;99585.69;4802317;28;121564;-82
2022/04/05 17:52:49;;;;;;;11.65;2.88;;;;;;;11.05;49.46;99585.69;4833215;28;120363;-81
2022/04/05 17:55:15;;;;;;;9.18;2.90;;;;;;;10.95;49.22;99573.38;4818351;28;120770;-81
2022/04/05 17:57:41;;;;;;;8.35;3.03;;;;;;;11.00;49.79;99591.88;4826617;28;121707;-81
2022/04/05 18:00:09;;;;;;;8.88;2.20;;;;;;;10.91;50.16;99572.81;4837162;28;121732;-81
2022/04/05 18:02:37;;;;;;;12.35;2.75;;;;;;;10.89;49.92;99580.78;4835144;28;119918;-81
2022/04/05 18:05:06;;;;;;;10.60;2.72;;;;;;;10.94;49.74;99604.03;4832896;28;119970;-82
2022/04/05 18:07:33;;;;;;;13.05;2.65;;;;;;;10.91;50.36;99597.50;4802085;28;119627;-80
2022/04/05 18:09:59;;;;;;;16.80;2.85;;;;;;;10.84;50.34;99595.16;4833423;28;121978;-81
2022/04/05 18:12:25;;;;;;;13.18;2.67;;;;;;;10.74;50.22;99582.81;4849837;28;119631;-82
2022/04/05 18:14:50;;;;;;;11.00;3.40;;;;;;;10.82;50.28;99596.84;4869356;28;119956;-80
2022/04/05 18:17:16;;;;;;;13.57;3.75;;;;;;;10.83;50.69;99599.13;4850680;28;121684;-82
2022/04/05 18:19:41;;;;;;;15.18;3.75;;;;;;;10.80;51.05;99602.81;4851675;28;122366;-80
2022/04/05 18:22:07;;;;;;;11.65;3.72;;;;;;;10.85;51.18;99606.88;4840399;28;119747;-81
2022/04/05 18:24:33;;;;;;;11.57;4.22;;;;;;;10.83;50.87;99612.84;4836467;28;120112;-81
2022/04/05 18:26:59;;;;;;;13.98;3.22;;;;;;;10.81;51.43;99607.06;4853089;28;120506;-80
2022/04/05 18:29:26;;;;;;;13.65;3.70;;;;;;;10.79;51.62;99615.03;4825890;28;122116;-81
2022/04/05 18:31:52;;;;;;;10.02;3.22;;;;;;;10.83;51.66;99614.81;4866317;28;119931;-81
2022/04/05 18:34:20;;;;;;;9.70;2.80;;;;;;;10.82;52.24;99610.56;4838030;28;119671;-80
2022/04/05 18:45:41;;;;;;;9.93;3.10;;;;;;;10.75;53.78;99633.69;4847339;28;120113;-80
2022/04/05 18:48:08;;;;;;;12.70;3.35;;;;;;;10.67;54.00;99619.63;4819725;28;121769;-81
2022/04/05 18:50:33;;;;;;;12.48;3.00;;;;;;;10.73;55.22;99631.41;4817822;28;119516;-80
2022/04/05 18:52:59;;;;;;;12.85;3.80;;;;;;;10.72;55.48;99631.88;4815699;28;122698;-80
2022/04/05 18:55:27;;;;;;;10.82;3.70;;;;;;;10.65;55.75;99622.06;4816352;28;123090;-80
2022/04/05 18:57:54;;;;;;;12.95;4.10;;;;;;;10.65;55.71;99615.84;4832974;28;121121;-80
2022/04/05 19:00:21;;;;;;;16.15;5.10;;;;;;;10.70;56.09;99634.34;4815936;28;120911;-80
2022/04/05 19:02:47;;;;;;;14.82;5.00;;;;;;;10.68;55.69;99626.59;4813873;28;121922;-80
2022/04/05 19:05:13;;;;;;;10.02;3.83;;;;;;;10.63;56.21;99624.50;4817049;28;121906;-79
2022/04/05 19:07:43;;;;;;;11.18;3.30;;;;;;;10.59;56.12;99621.22;4849614;28;119360;-80
2022/04/05 19:10:09;;;;;;;13.60;3.55;;;;;;;10.60;56.21;99625.47;4835084;28;122710;-80
2022/04/05 19:12:35;;;;;;;8.40;2.92;;;;;;;10.49;56.52;99608.88;4817034;28;121962;-81
2022/04/05 19:15:02;;;;;;;8.52;2.95;;;;;;;10.59;56.69;99631.44;4830806;28;121545;-80
2022/04/05 19:17:27;;;;;;;6.80;2.90;;;;;;;10.52;57.01;99623.59;4818113;28;119740;-80
2022/04/05 19:19:53;;;;;;;13.68;5.22;;;;;;;10.57;57.16;99631.91;4851339;28;119609;-80
2022/04/05 19:22:20;;;;;;;14.20;5.70;;;;;;;10.53;57.22;99636.06;4851060;28;119893;-80
2022/04/05 19:24:49;;;;;;;11.27;5.10;;;;;;;10.54;57.21;99638.34;4850705;28;119576;-81
2022/04/05 19:27:14;;;;;;;15.50;5.63;;;;;;;10.56;57.66;99635.13;4867415;28;119591;-80
2022/04/05 19:29:40;;;;;;;14.35;6.20;;;;;;;10.54;57.27;99623.88;4850939;28;121221;-83
2022/04/05 19:32:06;;;;;;;13.63;4.05;;;;;;;10.47;57.31;99622.28;4839188;28;120115;-83
2022/04/05 19:34:33;;;;;;;11.95;3.75;;;;;;;10.43;56.99;99622.50;4835272;28;121353;-81
2022/04/05 19:37:00;;;;;;;8.68;2.95;;;;;;;10.34;57.44;99611.59;4835558;28;121997;-81
2022/04/05 19:39:28;;;;;;;13.00;3.20;;;;;;;10.33;57.44;99623.81;4820276;28;122221;-81
2022/04/05 19:41:54;;;;;;;13.55;3.90;;;;;;;10.34;57.87;99617.09;4853113;28;119779;-82
2022/04/05 19:44:20;;;;;;;11.57;2.90;;;;;;;10.28;57.67;99610.00;4838760;28;119871;-81
2022/04/05 19:46:46;;;;;;;8.45;2.70;;;;;;;10.30;57.82;99621.25;4853502;28;122549;-81
2022/04/05 19:49:12;;;;;;;10.23;3.45;;;;;;;10.27;58.10;99620.22;4824308;28;122029;-81
2022/04/05 19:51:38;;;;;;;12.55;3.63;;;;;;;10.24;57.87;99614.94;4855039;28;119758;-80
2022/04/05 19:54:04;;;;;;;12.07;3.85;;;;;;;10.23;58.23;99619.66;4842056;28;121906;-81
2022/04/05 19:56:30;;;;;;;11.50;2.90;;;;;;;10.29;58.48;99625.22;4839239;28;119891;-80
2022/04/05 19:59:00;;;;;;;8.15;2.83;;;;;;;10.24;58.60;99621.16;4837838;28;121842;-81
2022/04/05 20:01:34;;;;;;;13.48;2.70;;;;;;;10.29;58.39;99623.25;4821747;28;122756;-80
2022/04/05 20:04:01;;;;;;;9.45;2.53;;;;;;;10.29;58.47;99622.50;4837712;28;122017;-81
2022/04/05 20:06:28;;;;;;;11.02;2.80;;;;;;;10.29;58.62;99620.50;4853125;28;122822;-81
2022/04/05 20:08:57;;;;;;;12.75;3.00;;;;;;;10.20;58.39;99614.34;4853226;28;119827;-80
2022/04/05 20:11:23;;;;;;;15.50;3.58;;;;;;;10.27;58.97;99624.94;4851898;28;123331;-80
2022/04/05 20:13:49;;;;;;;12.40;3.90;;;;;;;10.23;59.36;99619.66;4869246;28;119717;-81
2022/04/05 20:19:00;;;;;;;12.45;4.30;;;;;;;10.10;59.04;99599.97;4835573;28;121666;-80
2022/04/05 20:21:26;;;;;;;12.70;3.75;;;;;;;10.21;59.40;99611.16;4850332;28;124738;-80
2022/04/05 20:23:52;;;;;;;11.27;3.35;;;;;;;10.21;59.16;99611.16;4852277;28;120329;-80
2022/04/05 20:26:18;;;;;;;13.23;4.15;;;;;;;10.26;59.26;99618.72;4851980;28;120509;-80
2022/04/05 20:28:45;;;;;;;11.00;2.92;;;;;;;10.25;59.68;99606.25;4852956;28;122862;-80
2022/04/05 20:31:11;;;;;;;10.30;2.90;;;;;;;10.19;59.44;99602.63;4869962;28;120085;-80
2022/04/05 20:33:40;;;;;;;12.10;2.45;;;;;;;10.28;59.62;99610.78;4849800;28;120592;-80
2022/04/05 20:36:09;;;;;;;10.10;2.78;;;;;;;10.26;59.94;99609.72;4836910;28;122662;-80
2022/04/05 20:38:36;;;;;;;11.55;2.80;;;;;;;10.30;59.38;99608.31;4850789;28;119836;-79